createdAt,value
2023-03-05T00:01:39.941Z,54.00
2023-03-05T00:04:11.647Z,52.90
2023-03-05T00:06:39.609Z,58.42
2023-03-05T00:09:07.582Z,55.03
2023-03-05T00:11:35.520Z,52.28
2023-03-05T00:14:04.704Z,60.03
2023-03-05T00:16:33.148Z,60.40
2023-03-05T00:19:01.760Z,59.33
2023-03-05T00:21:30.892Z,56.85
2023-03-05T00:24:03.943Z,58.65
2023-03-05T00:26:34.947Z,56.37
2023-03-05T00:29:03.819Z,59.17
2023-03-05T00:31:34.298Z,54.47
2023-03-05T00:34:05.447Z,52.45
2023-03-05T00:36:33.583Z,61.40
2023-03-05T00:39:01.707Z,56.63
2023-03-05T00:41:29.717Z,62.80
2023-03-05T00:43:57.841Z,51.92
2023-03-05T00:46:27.664Z,60.38
2023-03-05T00:48:57.267Z,57.30
2023-03-05T00:51:25.161Z,55.03
2023-03-05T00:53:53.092Z,57.63
2023-03-05T00:56:21.324Z,56.35
2023-03-05T00:58:49.367Z,51.90
2023-03-05T01:01:17.535Z,59.58
2023-03-05T01:03:45.655Z,55.58
2023-03-05T01:06:16.575Z,55.85
2023-03-05T01:08:45.401Z,55.08
2023-03-05T01:11:13.366Z,59.47
2023-03-05T01:13:41.471Z,55.63
2023-03-05T01:16:09.704Z,49.72
2023-03-05T01:18:38.547Z,50.45
2023-03-05T01:21:07.339Z,53.03
2023-03-05T01:23:37.589Z,57.40
2023-03-05T01:26:06.737Z,50.58
2023-03-05T01:28:34.869Z,53.08
2023-03-05T01:31:02.801Z,47.40
2023-03-05T01:33:30.718Z,48.67
2023-03-05T01:35:58.680Z,52.92
2023-03-05T01:38:26.556Z,55.47
2023-03-05T01:40:54.472Z,55.50
2023-03-05T01:43:26.712Z,50.53
2023-03-05T01:46:13.642Z,48.80
2023-03-05T01:48:47.704Z,53.25
2023-03-05T01:53:44.211Z,49.75
2023-03-05T01:56:12.472Z,53.22
2023-03-05T01:58:40.698Z,58.08
2023-03-05T02:01:08.880Z,55.72
2023-03-05T02:03:37.689Z,48.15
2023-03-05T02:06:05.876Z,54.95
2023-03-05T02:08:33.880Z,50.90
2023-03-05T02:11:02.291Z,52.17
2023-03-05T02:13:35.800Z,49.45
2023-03-05T02:16:04.196Z,47.58
2023-03-05T02:18:32.148Z,50.25
2023-03-05T02:21:04.689Z,45.45
2023-03-05T02:23:36.638Z,50.30
2023-03-05T02:26:06.834Z,49.63
2023-03-05T02:28:44.732Z,50.72
2023-03-05T02:31:19.133Z,57.60
2023-03-05T02:33:48.002Z,50.08
2023-03-05T02:36:17.720Z,50.85
2023-03-05T02:38:47.711Z,53.20
2023-03-05T02:41:16.390Z,52.88
2023-03-05T02:43:44.763Z,55.33
2023-03-05T02:46:13.137Z,53.17
2023-03-05T02:48:41.142Z,48.58
2023-03-05T02:51:11.866Z,49.15
2023-03-05T02:53:39.743Z,50.42
2023-03-05T02:56:07.729Z,50.72
2023-03-05T02:58:36.791Z,48.42
2023-03-05T03:01:04.952Z,49.75
2023-03-05T03:03:33.204Z,52.00
2023-03-05T03:06:01.320Z,57.45
2023-03-05T03:08:29.242Z,48.65
2023-03-05T03:10:57.047Z,51.90
2023-03-05T03:13:25.563Z,50.20
2023-03-05T03:16:03.112Z,52.28
2023-03-05T03:18:31.042Z,50.72
2023-03-05T03:20:59.368Z,44.83
2023-03-05T03:23:27.955Z,49.70
2023-03-05T03:25:55.862Z,48.92
2023-03-05T03:28:24.228Z,53.95
2023-03-05T03:30:52.093Z,49.75
2023-03-05T03:33:20.184Z,52.30
2023-03-05T03:35:48.139Z,50.55
2023-03-05T03:38:16.033Z,46.58
2023-03-05T03:40:43.931Z,50.30
2023-03-05T03:43:11.930Z,53.70
2023-03-05T03:45:43.961Z,53.47
2023-03-05T03:48:12.000Z,52.42
2023-03-05T03:50:44.213Z,51.50
2023-03-05T03:53:15.239Z,51.33
2023-03-05T03:55:43.513Z,49.30
2023-03-05T03:58:11.494Z,51.42
2023-03-05T04:00:40.791Z,47.22
2023-03-05T04:03:09.165Z,47.95
2023-03-05T04:05:37.161Z,52.05
2023-03-05T04:08:05.957Z,48.90
2023-03-05T04:10:33.840Z,53.05
2023-03-05T04:13:01.663Z,48.78
2023-03-05T04:15:31.071Z,49.53
2023-03-05T04:17:59.193Z,51.08
2023-03-05T04:20:27.327Z,49.75
2023-03-05T04:22:55.161Z,50.92
2023-03-05T04:25:23.215Z,52.35
2023-03-05T04:27:52.224Z,46.63
2023-03-05T04:30:20.168Z,46.33
2023-03-05T04:32:48.036Z,52.83
2023-03-05T04:35:15.956Z,49.75
2023-03-05T04:37:43.867Z,51.28
2023-03-05T04:40:12.281Z,54.75
2023-03-05T04:42:40.157Z,61.17
2023-03-05T04:45:08.881Z,60.88
2023-03-05T04:47:36.883Z,54.95
2023-03-05T04:50:06.372Z,56.03
2023-03-05T04:52:34.462Z,54.38
2023-03-05T04:55:02.450Z,60.63
2023-03-05T04:57:30.424Z,52.83
2023-03-05T04:59:58.617Z,53.90
2023-03-05T05:02:26.634Z,48.78
2023-03-05T05:04:54.613Z,47.35
2023-03-05T05:07:22.518Z,53.08
2023-03-05T05:09:50.360Z,54.72
2023-03-05T05:12:18.354Z,57.95
2023-03-05T05:14:46.311Z,49.38
2023-03-05T05:17:14.294Z,53.42
2023-03-05T05:19:42.248Z,58.28
2023-03-05T05:22:10.160Z,55.65
2023-03-05T05:24:37.980Z,50.15
2023-03-05T05:27:05.981Z,56.42
2023-03-05T05:29:33.901Z,50.03
2023-03-05T05:32:01.856Z,53.35
2023-03-05T05:34:29.839Z,49.33
2023-03-05T05:36:57.800Z,55.28
2023-03-05T05:39:25.635Z,57.03
2023-03-05T05:41:54.008Z,54.17
2023-03-05T05:44:21.850Z,55.05
2023-03-05T05:46:49.892Z,53.90
2023-03-05T05:49:17.927Z,53.35
2023-03-05T05:51:46.132Z,51.92
2023-03-05T05:54:15.259Z,52.75
2023-03-05T05:56:43.251Z,47.47
2023-03-05T05:59:11.291Z,55.88
2023-03-05T06:01:39.529Z,53.35
2023-03-05T06:04:07.491Z,59.70
2023-03-05T06:06:35.536Z,52.55
2023-03-05T06:09:04.360Z,52.83
2023-03-05T06:11:32.450Z,63.97
2023-03-05T06:14:02.739Z,58.50
2023-03-05T06:16:31.318Z,53.22
2023-03-05T06:19:00.371Z,55.08
2023-03-05T06:21:28.239Z,48.65
2023-03-05T06:23:58.855Z,50.95
2023-03-05T06:26:27.010Z,53.20
2023-03-05T06:28:55.107Z,48.05
2023-03-05T06:31:28.130Z,58.08
2023-03-05T06:34:03.054Z,51.67
2023-03-05T06:36:31.643Z,49.75
2023-03-05T06:39:00.504Z,49.58
2023-03-05T06:41:31.000Z,52.65
2023-03-05T06:44:03.493Z,46.95
2023-03-05T06:46:40.635Z,57.28
2023-03-05T06:49:09.758Z,48.63
2023-03-05T06:51:40.393Z,44.10
2023-03-05T06:54:11.788Z,47.85
2023-03-05T06:56:42.050Z,44.55
2023-03-05T06:59:12.175Z,43.67
2023-03-05T07:01:40.332Z,42.22
2023-03-05T07:04:08.529Z,45.85
2023-03-05T07:06:38.735Z,39.28
2023-03-05T07:09:08.128Z,51.58
2023-03-05T07:11:36.413Z,50.30
2023-03-05T07:14:04.669Z,42.42
2023-03-05T07:16:34.946Z,49.45
2023-03-05T07:19:05.694Z,41.00
2023-03-05T07:21:36.903Z,41.05
2023-03-05T07:24:06.758Z,40.92
2023-03-05T07:26:35.088Z,38.72
2023-03-05T07:29:03.655Z,38.45
2023-03-05T07:31:32.350Z,38.80
2023-03-05T07:34:02.654Z,37.55
2023-03-05T07:36:31.249Z,40.45
2023-03-05T07:38:59.107Z,36.20
2023-03-05T07:41:27.080Z,37.15
2023-03-05T07:43:55.440Z,33.38
2023-03-05T07:46:29.533Z,35.03
2023-03-05T07:51:26.805Z,35.05
2023-03-05T07:53:57.605Z,37.40
2023-03-05T07:56:31.928Z,35.47
2023-03-05T07:59:00.368Z,37.00
2023-03-05T08:01:29.974Z,37.30
2023-03-05T08:03:57.986Z,38.58
2023-03-05T08:06:25.980Z,43.40
2023-03-05T08:08:53.813Z,38.85
2023-03-05T08:11:21.796Z,37.75
2023-03-05T08:13:51.322Z,40.13
2023-03-05T08:16:21.580Z,37.83
2023-03-05T08:18:49.508Z,37.60
2023-03-05T08:21:23.405Z,37.70
2023-03-05T08:23:51.321Z,36.38
2023-03-05T08:26:22.115Z,37.28
2023-03-05T08:28:50.936Z,36.55
2023-03-05T08:31:21.833Z,40.28
2023-03-05T08:33:52.156Z,41.10
2023-03-05T08:36:20.559Z,40.35
2023-03-05T08:38:48.819Z,34.45
2023-03-05T08:41:18.818Z,38.17
2023-03-05T08:43:47.069Z,39.03
2023-03-05T08:46:16.222Z,39.78
2023-03-05T08:48:44.763Z,39.53
2023-03-05T08:51:19.007Z,36.30
2023-03-05T08:53:48.222Z,37.33
2023-03-05T08:56:16.134Z,39.00
2023-03-05T08:58:44.869Z,40.08
2023-03-05T09:01:13.695Z,42.80
2023-03-05T09:03:42.180Z,36.13
2023-03-05T09:06:12.640Z,38.67
2023-03-05T09:08:40.717Z,41.13
2023-03-05T09:11:11.820Z,42.67
2023-03-05T09:13:39.965Z,36.80
2023-03-05T09:16:11.241Z,40.28
2023-03-05T09:18:40.758Z,42.72
2023-03-05T09:21:14.093Z,38.63
2023-03-05T09:23:42.732Z,39.65
2023-03-05T09:26:12.550Z,39.15
2023-03-05T09:28:41.020Z,40.28
2023-03-05T09:31:10.531Z,40.78
2023-03-05T09:33:39.360Z,42.83
2023-03-05T09:36:27.519Z,44.60
2023-03-05T09:38:55.892Z,39.88
2023-03-05T09:42:04.184Z,39.30
2023-03-05T09:44:59.325Z,41.17
2023-03-05T09:47:32.865Z,41.88
2023-03-05T09:50:18.969Z,39.15
2023-03-05T09:52:59.767Z,37.75
2023-03-05T09:55:44.831Z,39.30
2023-03-05T09:58:30.550Z,37.75
2023-03-05T10:01:02.770Z,42.33
2023-03-05T10:03:42.609Z,43.08
2023-03-05T10:06:23.752Z,37.10
2023-03-05T10:09:09.945Z,36.08
2023-03-05T10:11:59.262Z,40.90
2023-03-05T10:14:31.160Z,37.63
2023-03-05T10:17:20.897Z,41.47
2023-03-05T10:20:13.203Z,43.47
2023-03-05T10:23:39.453Z,35.63
2023-03-05T10:26:36.756Z,44.22
2023-03-05T10:29:13.543Z,37.42
2023-03-05T10:32:04.588Z,45.72
2023-03-05T10:35:01.838Z,45.63
2023-03-05T10:37:48.892Z,44.05
2023-03-05T10:40:30.014Z,35.83
2023-03-05T10:43:15.683Z,42.55
2023-03-05T10:45:46.700Z,46.13
2023-03-05T10:48:43.506Z,40.25
2023-03-05T10:51:23.325Z,44.30
2023-03-05T10:53:56.599Z,43.03
2023-03-05T10:56:27.768Z,39.30
2023-03-05T10:58:55.854Z,42.08
2023-03-05T11:01:28.272Z,43.75
2023-03-05T11:04:01.616Z,37.92
2023-03-05T11:06:46.537Z,41.83
2023-03-05T11:09:29.456Z,38.05
2023-03-05T11:12:19.600Z,39.78
2023-03-05T11:15:05.121Z,41.95
2023-03-05T11:17:38.326Z,39.42
2023-03-05T11:20:27.765Z,39.80
2023-03-05T11:23:05.882Z,42.35
2023-03-05T11:25:35.441Z,43.20
2023-03-05T11:28:04.290Z,36.42
2023-03-05T11:30:35.222Z,34.67
2023-03-05T11:33:22.689Z,35.42
2023-03-05T11:35:52.680Z,44.92
2023-03-05T11:38:24.678Z,32.95
2023-03-05T11:40:55.671Z,35.55
2023-03-05T11:43:25.886Z,37.80
2023-03-05T11:46:01.713Z,34.60
2023-03-05T11:48:36.147Z,31.65
2023-03-05T11:51:13.899Z,35.13
2023-03-05T11:53:44.755Z,33.83
2023-03-05T11:56:21.079Z,31.55
2023-03-05T11:59:03.108Z,37.95
2023-03-05T12:01:40.683Z,37.60
2023-03-05T12:04:08.923Z,34.08
2023-03-05T12:06:49.255Z,39.60
2023-03-05T12:09:23.178Z,39.03
2023-03-05T12:11:56.709Z,34.45
2023-03-05T12:14:28.112Z,36.28
2023-03-05T12:17:04.543Z,30.50
2023-03-05T12:19:41.424Z,35.22
2023-03-05T12:22:27.423Z,32.60
2023-03-05T12:25:34.884Z,35.42
2023-03-05T12:28:03.326Z,33.13
2023-03-05T12:30:37.189Z,34.60
2023-03-05T12:33:26.765Z,36.28
2023-03-05T12:35:55.037Z,33.45
2023-03-05T12:38:31.885Z,36.15
2023-03-05T12:41:25.861Z,33.88
2023-03-05T12:44:07.056Z,38.20
2023-03-05T12:46:54.822Z,33.42
2023-03-05T12:49:27.196Z,42.45
2023-03-05T12:52:01.351Z,38.60
2023-03-05T12:54:31.959Z,36.45
2023-03-05T12:57:06.845Z,36.22
2023-03-05T12:59:45.790Z,39.80
2023-03-05T13:02:32.542Z,39.03
2023-03-05T13:05:14.860Z,36.80
2023-03-05T13:07:42.884Z,36.70
2023-03-05T13:10:29.297Z,39.70
2023-03-05T13:12:58.757Z,38.95
2023-03-05T13:15:27.258Z,39.30
2023-03-05T13:17:58.144Z,40.60
2023-03-05T13:20:28.894Z,36.45
2023-03-05T13:23:20.799Z,37.15
2023-03-05T13:26:01.440Z,41.85
2023-03-05T13:28:32.553Z,36.08
2023-03-05T13:31:05.114Z,40.50
2023-03-05T13:33:37.846Z,37.58
2023-03-05T13:36:06.851Z,37.75
2023-03-05T13:38:39.255Z,40.92
2023-03-05T13:41:16.227Z,36.88
2023-03-05T13:43:49.635Z,33.42
2023-03-05T13:46:47.889Z,37.33
2023-03-05T13:49:23.156Z,35.15
2023-03-05T13:51:56.645Z,35.00
2023-03-05T13:54:27.198Z,35.47
2023-03-05T13:57:00.777Z,36.22
2023-03-05T13:59:31.415Z,37.30
2023-03-05T14:02:01.632Z,35.20
2023-03-05T14:04:42.837Z,36.63
2023-03-05T14:07:39.971Z,36.72
2023-03-05T14:10:40.470Z,37.22
2023-03-05T14:13:19.362Z,35.08
2023-03-05T14:16:07.053Z,36.20
2023-03-05T14:18:36.129Z,32.25
2023-03-05T14:21:10.158Z,38.60
2023-03-05T14:23:39.741Z,35.20
2023-03-05T14:26:39.758Z,35.20
2023-03-05T14:29:07.634Z,34.65
2023-03-05T14:31:56.296Z,41.13
2023-03-05T14:34:35.366Z,39.03
2023-03-05T14:37:07.333Z,35.58
2023-03-05T14:39:53.221Z,35.40
2023-03-05T14:42:38.434Z,39.35
2023-03-05T14:45:24.637Z,34.80
2023-03-05T14:47:54.512Z,39.03
2023-03-05T14:50:32.764Z,39.45
2023-03-05T14:53:17.515Z,45.55
2023-03-05T14:55:49.446Z,42.50
2023-03-05T14:58:22.008Z,35.72
2023-03-05T15:00:51.343Z,37.30
2023-03-05T15:03:22.049Z,36.00
2023-03-05T15:05:56.505Z,36.95
2023-03-05T15:08:27.747Z,38.22
2023-03-05T15:10:56.063Z,42.35
2023-03-05T15:13:24.546Z,38.30
2023-03-05T15:15:53.765Z,41.22
2023-03-05T15:18:23.930Z,42.38
2023-03-05T15:20:57.128Z,44.85
2023-03-05T15:23:25.284Z,39.80
2023-03-05T15:25:53.111Z,41.47
2023-03-05T15:28:21.171Z,39.53
2023-03-05T15:30:49.082Z,38.53
2023-03-05T15:33:18.296Z,40.42
2023-03-05T15:35:46.552Z,40.60
2023-03-05T15:38:16.374Z,36.08
2023-03-05T15:40:45.102Z,41.00
2023-03-05T15:43:13.528Z,43.47
2023-03-05T15:45:41.557Z,44.40
2023-03-05T15:48:09.688Z,41.03
2023-03-05T15:50:42.210Z,45.17
2023-03-05T15:53:13.612Z,41.45
2023-03-05T15:55:45.125Z,38.83
2023-03-05T15:58:17.529Z,43.42
2023-03-05T16:00:47.696Z,46.78
2023-03-05T16:03:16.348Z,46.35
2023-03-05T16:05:44.435Z,41.47
2023-03-05T16:08:12.718Z,45.63
2023-03-05T16:10:41.186Z,49.90
2023-03-05T16:13:13.647Z,40.85
2023-03-05T16:15:43.140Z,42.78
2023-03-05T16:18:15.541Z,43.97
2023-03-05T16:20:43.757Z,41.50
2023-03-05T16:23:11.730Z,43.28
2023-03-05T16:25:39.799Z,40.58
2023-03-05T16:28:07.874Z,45.53
2023-03-05T16:30:35.829Z,45.67
2023-03-05T16:33:03.942Z,42.88
2023-03-05T16:35:31.941Z,44.50
2023-03-05T16:37:59.863Z,46.58
2023-03-05T16:40:44.137Z,41.05
2023-03-05T16:43:15.573Z,45.50
2023-03-05T16:45:43.404Z,44.97
2023-03-05T16:48:11.181Z,46.10
2023-03-05T16:50:39.077Z,44.47
2023-03-05T16:53:07.685Z,42.78
2023-03-05T16:55:37.020Z,45.90
2023-03-05T16:58:05.354Z,47.13
2023-03-05T17:00:33.382Z,48.17
2023-03-05T17:03:01.453Z,43.78
2023-03-05T17:05:30.017Z,42.35
2023-03-05T17:07:57.983Z,48.40
2023-03-05T17:10:26.013Z,45.83
2023-03-05T17:12:54.676Z,50.53
2023-03-05T17:15:23.659Z,53.28
2023-03-05T17:17:51.822Z,48.72
2023-03-05T17:20:20.304Z,52.13
2023-03-05T17:22:48.204Z,50.45
2023-03-05T17:25:16.162Z,51.97
2023-03-05T17:27:44.091Z,55.47
2023-03-05T17:30:13.134Z,47.83
2023-03-05T17:32:44.139Z,48.58
2023-03-05T17:35:19.390Z,53.35
2023-03-05T17:37:47.434Z,54.38
2023-03-05T17:40:16.434Z,47.30
2023-03-05T17:42:44.349Z,51.17
2023-03-05T17:45:12.696Z,58.70
2023-03-05T17:47:40.836Z,49.30
2023-03-05T17:50:10.806Z,48.78
2023-03-05T17:52:40.634Z,45.70
2023-03-05T17:55:11.100Z,52.88
2023-03-05T17:57:44.178Z,56.35
2023-03-05T18:00:24.783Z,51.42
2023-03-05T18:02:53.920Z,46.13
2023-03-05T18:05:23.684Z,52.80
2023-03-05T18:07:52.309Z,51.05
2023-03-05T18:10:21.185Z,47.88
2023-03-05T18:12:49.648Z,52.83
2023-03-05T18:15:20.105Z,52.95
2023-03-05T18:17:48.097Z,50.28
2023-03-05T18:20:32.812Z,51.70
2023-03-05T18:23:02.095Z,49.05
2023-03-05T18:25:33.759Z,57.40
2023-03-05T18:28:04.251Z,54.05
2023-03-05T18:30:32.788Z,51.83
2023-03-05T18:33:01.109Z,52.92
2023-03-05T18:35:29.791Z,52.80
2023-03-05T18:37:57.881Z,48.58
2023-03-05T18:40:29.286Z,56.03
2023-03-05T18:43:00.207Z,53.40
2023-03-05T18:45:29.869Z,64.00
2023-03-05T18:47:57.985Z,79.45
2023-03-05T18:50:28.482Z,81.53
2023-03-05T18:52:56.765Z,60.03
2023-03-05T18:55:27.600Z,53.85
2023-03-05T18:57:56.361Z,59.22
2023-03-05T19:00:27.738Z,59.42
2023-03-05T19:02:57.133Z,63.33
2023-03-05T19:05:26.830Z,53.25
2023-03-05T19:07:55.627Z,58.92
2023-03-05T19:10:27.264Z,61.10
2023-03-05T19:13:39.877Z,61.33
2023-03-05T19:16:08.938Z,78.22
2023-03-05T19:19:26.065Z,73.85
2023-03-05T19:21:59.721Z,66.25
2023-03-05T19:24:30.183Z,70.07
2023-03-05T19:27:01.247Z,57.25
2023-03-05T19:29:33.135Z,61.85
2023-03-05T19:32:01.292Z,55.97
2023-03-05T19:34:29.156Z,60.67
2023-03-05T19:36:57.357Z,66.30
2023-03-05T19:39:25.316Z,63.50
2023-03-05T19:41:53.785Z,60.55
2023-03-05T19:44:23.543Z,57.63
2023-03-05T19:46:52.276Z,56.38
2023-03-05T19:49:20.526Z,59.45
2023-03-05T19:51:49.719Z,56.72
2023-03-05T19:54:19.858Z,58.83
2023-03-05T19:56:49.161Z,57.47
2023-03-05T19:59:21.283Z,54.25
2023-03-05T20:01:50.167Z,59.25
2023-03-05T20:04:24.452Z,46.15
2023-03-05T20:06:52.768Z,48.60
2023-03-05T20:09:20.737Z,46.47
2023-03-05T20:11:50.074Z,41.65
2023-03-05T20:14:18.546Z,48.05
2023-03-05T20:16:46.494Z,41.85
2023-03-05T20:19:17.781Z,40.72
2023-03-05T20:21:45.738Z,42.25
2023-03-05T20:24:20.110Z,42.15
2023-03-05T20:26:48.337Z,43.05
2023-03-05T20:29:18.169Z,45.20
2023-03-05T20:31:47.786Z,40.15
2023-03-05T20:34:21.133Z,39.90
2023-03-05T20:36:52.261Z,40.95
2023-03-05T20:39:20.190Z,42.15
2023-03-05T20:41:48.685Z,42.45
2023-03-05T20:44:17.480Z,40.95
2023-03-05T20:47:39.673Z,40.08
2023-03-05T20:50:11.129Z,43.38
2023-03-05T20:52:39.513Z,35.60
2023-03-05T20:55:08.956Z,42.28
2023-03-05T20:57:36.904Z,48.30
2023-03-05T21:00:05.915Z,47.72
2023-03-05T21:02:33.842Z,40.78
2023-03-05T21:05:01.643Z,38.05
2023-03-05T21:07:29.830Z,45.90
2023-03-05T21:09:57.589Z,40.05
2023-03-05T21:12:25.435Z,39.22
2023-03-05T21:14:53.363Z,39.53
2023-03-05T21:17:21.370Z,43.42
2023-03-05T21:19:49.444Z,42.58
2023-03-05T21:22:17.333Z,43.78
2023-03-05T21:25:24.936Z,43.65
2023-03-05T21:28:16.639Z,37.95
2023-03-05T21:30:51.913Z,39.15
2023-03-05T21:33:23.545Z,37.47
2023-03-05T21:35:52.902Z,40.15
2023-03-05T21:38:27.062Z,39.22
2023-03-05T21:43:24.248Z,40.67
2023-03-05T21:45:54.349Z,33.88
2023-03-05T21:48:23.480Z,40.63
2023-03-05T21:50:52.557Z,45.35
2023-03-05T21:53:21.069Z,45.10
2023-03-05T21:56:25.469Z,44.92
2023-03-05T21:58:54.205Z,41.20
2023-03-05T22:01:22.408Z,40.30
2023-03-05T22:03:50.809Z,42.08
2023-03-05T22:06:19.862Z,42.47
2023-03-05T22:08:48.600Z,42.22
2023-03-05T22:11:18.058Z,39.15
2023-03-05T22:13:45.912Z,42.80
2023-03-05T22:16:24.526Z,44.58
2023-03-05T22:18:52.957Z,42.38
2023-03-05T22:21:23.481Z,38.33
2023-03-05T22:23:51.367Z,41.55
2023-03-05T22:26:19.235Z,43.85
2023-03-05T22:28:47.110Z,40.42
2023-03-05T22:31:27.525Z,42.10
2023-03-05T22:33:55.364Z,46.33
2023-03-05T22:36:24.550Z,38.83
2023-03-05T22:38:52.813Z,41.75
2023-03-05T22:41:21.847Z,41.33
2023-03-05T22:43:50.653Z,44.90
2023-03-05T22:46:24.524Z,39.15
2023-03-05T22:48:52.709Z,40.15
2023-03-05T22:51:20.801Z,39.42
2023-03-05T22:53:48.794Z,42.13
2023-03-05T22:56:19.039Z,44.97
2023-03-05T22:58:47.260Z,41.45
2023-03-05T23:01:18.692Z,45.20
2023-03-05T23:04:44.801Z,44.58
2023-03-05T23:07:34.784Z,43.95
2023-03-05T23:10:07.265Z,43.53
2023-03-05T23:12:37.801Z,46.25
2023-03-05T23:15:09.036Z,45.70
2023-03-05T23:17:36.995Z,43.45
2023-03-05T23:20:08.020Z,49.33
2023-03-05T23:22:40.388Z,49.35
2023-03-05T23:25:08.687Z,43.88
2023-03-05T23:27:36.678Z,41.97
2023-03-05T23:30:24.461Z,44.38
2023-03-05T23:32:58.832Z,43.75
2023-03-05T23:35:51.412Z,41.95
2023-03-05T23:38:19.352Z,47.42
2023-03-05T23:40:50.026Z,45.53
2023-03-05T23:43:18.953Z,45.25
2023-03-05T23:45:49.447Z,46.13
2023-03-05T23:48:18.109Z,42.67
2023-03-05T23:50:48.680Z,44.05
2023-03-05T23:53:22.269Z,44.45
2023-03-05T23:55:50.580Z,49.13
2023-03-05T23:58:20.726Z,46.13
